sensor_id;sensor_type;location;lat;lon;timestamp;P1;durP1;ratioP1;P2;durP2;ratioP2
19087;SDS011;9676;50.916;13.352;2023-08-12T00:02:39;11.60;;;10.50;;
19087;SDS011;9676;50.916;13.352;2023-08-12T00:05:29;11.83;;;10.63;;
19087;SDS011;9676;50.916;13.352;2023-08-12T00:08:20;12.10;;;10.50;;
19087;SDS011;9676;50.916;13.352;2023-08-12T00:11:09;11.73;;;10.63;;
19087;SDS011;9676;50.916;13.352;2023-08-12T00:13:59;13.03;;;11.10;;
19087;SDS011;9676;50.916;13.352;2023-08-12T00:16:48;11.53;;;10.37;;
19087;SDS011;9676;50.916;13.352;2023-08-12T00:19:37;11.97;;;10.80;;
19087;SDS011;9676;50.916;13.352;2023-08-12T00:22:27;12.47;;;11.17;;
19087;SDS011;9676;50.916;13.352;2023-08-12T00:25:17;13.57;;;11.27;;
19087;SDS011;9676;50.916;13.352;2023-08-12T00:28:07;11.90;;;10.70;;
19087;SDS011;9676;50.916;13.352;2023-08-12T00:30:57;12.43;;;11.20;;
19087;SDS011;9676;50.916;13.352;2023-08-12T00:33:47;12.30;;;11.10;;
19087;SDS011;9676;50.916;13.352;2023-08-12T00:36:36;13.83;;;11.63;;
19087;SDS011;9676;50.916;13.352;2023-08-12T00:39:25;12.63;;;11.33;;
19087;SDS011;9676;50.916;13.352;2023-08-12T00:42:16;12.13;;;10.83;;
19087;SDS011;9676;50.916;13.352;2023-08-12T00:45:06;12.07;;;10.87;;
19087;SDS011;9676;50.916;13.352;2023-08-12T00:48:00;11.70;;;10.60;;
19087;SDS011;9676;50.916;13.352;2023-08-12T00:50:50;12.13;;;10.90;;
19087;SDS011;9676;50.916;13.352;2023-08-12T00:53:40;12.80;;;11.20;;
19087;SDS011;9676;50.916;13.352;2023-08-12T00:56:30;11.50;;;10.40;;
19087;SDS011;9676;50.916;13.352;2023-08-12T00:59:21;12.07;;;10.90;;
19087;SDS011;9676;50.916;13.352;2023-08-12T01:02:11;11.53;;;10.43;;
19087;SDS011;9676;50.916;13.352;2023-08-12T01:05:01;11.70;;;10.50;;
19087;SDS011;9676;50.916;13.352;2023-08-12T01:07:51;12.00;;;10.80;;
19087;SDS011;9676;50.916;13.352;2023-08-12T01:10:44;12.00;;;10.83;;
19087;SDS011;9676;50.916;13.352;2023-08-12T01:13:42;15.03;;;10.83;;
19087;SDS011;9676;50.916;13.352;2023-08-12T01:16:39;11.80;;;10.60;;
19087;SDS011;9676;50.916;13.352;2023-08-12T01:19:34;12.67;;;11.37;;
19087;SDS011;9676;50.916;13.352;2023-08-12T01:22:25;13.07;;;11.23;;
19087;SDS011;9676;50.916;13.352;2023-08-12T01:25:17;13.93;;;10.87;;
19087;SDS011;9676;50.916;13.352;2023-08-12T01:28:06;12.17;;;10.90;;
19087;SDS011;9676;50.916;13.352;2023-08-12T01:30:57;12.60;;;11.30;;
19087;SDS011;9676;50.916;13.352;2023-08-12T01:33:58;12.50;;;11.27;;
19087;SDS011;9676;50.916;13.352;2023-08-12T01:36:54;14.73;;;11.40;;
19087;SDS011;9676;50.916;13.352;2023-08-12T01:39:45;12.40;;;10.87;;
19087;SDS011;9676;50.916;13.352;2023-08-12T01:42:37;12.23;;;11.03;;
19087;SDS011;9676;50.916;13.352;2023-08-12T01:45:30;11.93;;;10.80;;
19087;SDS011;9676;50.916;13.352;2023-08-12T01:48:21;11.90;;;10.70;;
19087;SDS011;9676;50.916;13.352;2023-08-12T01:51:11;11.70;;;10.60;;
19087;SDS011;9676;50.916;13.352;2023-08-12T01:54:00;14.33;;;10.30;;
19087;SDS011;9676;50.916;13.352;2023-08-12T01:56:50;13.17;;;10.20;;
19087;SDS011;9676;50.916;13.352;2023-08-12T01:59:41;11.77;;;10.37;;
19087;SDS011;9676;50.916;13.352;2023-08-12T02:02:31;10.67;;;9.70;;
19087;SDS011;9676;50.916;13.352;2023-08-12T02:05:20;11.83;;;10.57;;
19087;SDS011;9676;50.916;13.352;2023-08-12T02:08:10;11.53;;;10.00;;
19087;SDS011;9676;50.916;13.352;2023-08-12T02:10:59;11.30;;;10.30;;
19087;SDS011;9676;50.916;13.352;2023-08-12T02:13:48;11.67;;;10.57;;
19087;SDS011;9676;50.916;13.352;2023-08-12T02:16:39;10.90;;;9.90;;
19087;SDS011;9676;50.916;13.352;2023-08-12T02:19:29;11.70;;;10.60;;
19087;SDS011;9676;50.916;13.352;2023-08-12T02:22:18;11.20;;;10.20;;
19087;SDS011;9676;50.916;13.352;2023-08-12T02:25:08;12.00;;;10.83;;
19087;SDS011;9676;50.916;13.352;2023-08-12T02:27:59;11.10;;;10.00;;
19087;SDS011;9676;50.916;13.352;2023-08-12T02:30:48;11.60;;;10.50;;
19087;SDS011;9676;50.916;13.352;2023-08-12T02:33:39;11.20;;;10.20;;
19087;SDS011;9676;50.916;13.352;2023-08-12T02:36:28;11.43;;;10.33;;
19087;SDS011;9676;50.916;13.352;2023-08-12T02:39:18;14.83;;;10.73;;
19087;SDS011;9676;50.916;13.352;2023-08-12T02:42:07;11.67;;;10.60;;
19087;SDS011;9676;50.916;13.352;2023-08-12T02:44:56;11.40;;;10.30;;
19087;SDS011;9676;50.916;13.352;2023-08-12T02:47:47;12.43;;;11.20;;
19087;SDS011;9676;50.916;13.352;2023-08-12T02:50:38;12.47;;;11.17;;
19087;SDS011;9676;50.916;13.352;2023-08-12T02:53:27;12.40;;;11.00;;
19087;SDS011;9676;50.916;13.352;2023-08-12T02:56:17;12.83;;;11.53;;
19087;SDS011;9676;50.916;13.352;2023-08-12T02:59:06;12.53;;;11.23;;
19087;SDS011;9676;50.916;13.352;2023-08-12T03:01:56;12.50;;;11.20;;
19087;SDS011;9676;50.916;13.352;2023-08-12T03:04:45;12.93;;;11.60;;
19087;SDS011;9676;50.916;13.352;2023-08-12T03:07:36;12.33;;;11.13;;
19087;SDS011;9676;50.916;13.352;2023-08-12T03:10:25;13.17;;;11.83;;
19087;SDS011;9676;50.916;13.352;2023-08-12T03:13:15;12.40;;;11.13;;
19087;SDS011;9676;50.916;13.352;2023-08-12T03:16:04;13.10;;;11.70;;
19087;SDS011;9676;50.916;13.352;2023-08-12T03:19:00;12.80;;;11.50;;
19087;SDS011;9676;50.916;13.352;2023-08-12T03:21:49;12.23;;;11.03;;
19087;SDS011;9676;50.916;13.352;2023-08-12T03:24:42;15.70;;;11.03;;
19087;SDS011;9676;50.916;13.352;2023-08-12T03:27:31;13.10;;;11.77;;
19087;SDS011;9676;50.916;13.352;2023-08-12T03:30:21;12.57;;;11.17;;
19087;SDS011;9676;50.916;13.352;2023-08-12T03:33:10;12.20;;;11.10;;
19087;SDS011;9676;50.916;13.352;2023-08-12T03:36:01;11.87;;;10.77;;
19087;SDS011;9676;50.916;13.352;2023-08-12T03:38:51;11.57;;;10.47;;
19087;SDS011;9676;50.916;13.352;2023-08-12T03:41:47;11.47;;;10.37;;
19087;SDS011;9676;50.916;13.352;2023-08-12T03:44:38;11.73;;;10.70;;
19087;SDS011;9676;50.916;13.352;2023-08-12T03:47:28;11.60;;;10.50;;
19087;SDS011;9676;50.916;13.352;2023-08-12T03:50:18;12.10;;;10.90;;
19087;SDS011;9676;50.916;13.352;2023-08-12T03:53:07;14.10;;;10.97;;
19087;SDS011;9676;50.916;13.352;2023-08-12T03:55:58;14.30;;;11.10;;
19087;SDS011;9676;50.916;13.352;2023-08-12T03:58:50;12.63;;;11.43;;
19087;SDS011;9676;50.916;13.352;2023-08-12T04:01:40;12.80;;;11.20;;
19087;SDS011;9676;50.916;13.352;2023-08-12T04:04:30;14.10;;;11.70;;
19087;SDS011;9676;50.916;13.352;2023-08-12T04:07:19;12.50;;;11.30;;
19087;SDS011;9676;50.916;13.352;2023-08-12T04:10:09;12.83;;;11.13;;
19087;SDS011;9676;50.916;13.352;2023-08-12T04:12:58;13.50;;;11.90;;
19087;SDS011;9676;50.916;13.352;2023-08-12T04:15:49;13.50;;;11.90;;
19087;SDS011;9676;50.916;13.352;2023-08-12T04:18:40;12.80;;;11.50;;
19087;SDS011;9676;50.916;13.352;2023-08-12T04:21:30;12.80;;;11.30;;
19087;SDS011;9676;50.916;13.352;2023-08-12T04:24:20;12.33;;;11.13;;
19087;SDS011;9676;50.916;13.352;2023-08-12T04:27:09;12.40;;;11.10;;
19087;SDS011;9676;50.916;13.352;2023-08-12T04:29:59;12.47;;;11.17;;
19087;SDS011;9676;50.916;13.352;2023-08-12T04:32:51;15.67;;;11.90;;
19087;SDS011;9676;50.916;13.352;2023-08-12T04:35:40;13.40;;;12.00;;
19087;SDS011;9676;50.916;13.352;2023-08-12T04:38:31;12.77;;;11.50;;
19087;SDS011;9676;50.916;13.352;2023-08-12T04:41:22;12.97;;;11.67;;
19087;SDS011;9676;50.916;13.352;2023-08-12T04:44:13;13.30;;;11.93;;
19087;SDS011;9676;50.916;13.352;2023-08-12T04:47:03;14.43;;;11.87;;
19087;SDS011;9676;50.916;13.352;2023-08-12T04:49:57;13.37;;;11.97;;
19087;SDS011;9676;50.916;13.352;2023-08-12T04:52:47;12.83;;;11.57;;
19087;SDS011;9676;50.916;13.352;2023-08-12T04:55:39;13.00;;;11.60;;
19087;SDS011;9676;50.916;13.352;2023-08-12T04:58:31;12.50;;;11.10;;
19087;SDS011;9676;50.916;13.352;2023-08-12T05:01:21;33.00;;;11.33;;
19087;SDS011;9676;50.916;13.352;2023-08-12T05:04:12;11.80;;;10.70;;
19087;SDS011;9676;50.916;13.352;2023-08-12T05:07:02;12.83;;;11.57;;
19087;SDS011;9676;50.916;13.352;2023-08-12T05:09:52;11.90;;;10.60;;
19087;SDS011;9676;50.916;13.352;2023-08-12T05:12:41;11.67;;;10.53;;
19087;SDS011;9676;50.916;13.352;2023-08-12T05:15:31;12.83;;;10.63;;
19087;SDS011;9676;50.916;13.352;2023-08-12T05:18:21;10.80;;;9.80;;
19087;SDS011;9676;50.916;13.352;2023-08-12T05:21:11;11.07;;;10.07;;
19087;SDS011;9676;50.916;13.352;2023-08-12T05:24:03;10.57;;;9.57;;
19087;SDS011;9676;50.916;13.352;2023-08-12T05:26:53;11.17;;;10.17;;
19087;SDS011;9676;50.916;13.352;2023-08-12T05:29:42;11.13;;;10.03;;
19087;SDS011;9676;50.916;13.352;2023-08-12T05:32:31;10.53;;;9.40;;
19087;SDS011;9676;50.916;13.352;2023-08-12T05:35:21;10.50;;;9.50;;
19087;SDS011;9676;50.916;13.352;2023-08-12T05:38:10;10.07;;;9.07;;
19087;SDS011;9676;50.916;13.352;2023-08-12T05:41:01;10.60;;;9.60;;
19087;SDS011;9676;50.916;13.352;2023-08-12T05:43:54;10.30;;;9.30;;
19087;SDS011;9676;50.916;13.352;2023-08-12T05:46:44;11.53;;;9.40;;
19087;SDS011;9676;50.916;13.352;2023-08-12T05:49:33;10.20;;;9.20;;
19087;SDS011;9676;50.916;13.352;2023-08-12T05:52:22;10.10;;;9.10;;
19087;SDS011;9676;50.916;13.352;2023-08-12T05:55:12;10.10;;;9.10;;
19087;SDS011;9676;50.916;13.352;2023-08-12T05:58:03;10.10;;;9.20;;
19087;SDS011;9676;50.916;13.352;2023-08-12T06:00:52;10.40;;;9.40;;
19087;SDS011;9676;50.916;13.352;2023-08-12T06:03:42;10.37;;;9.40;;
19087;SDS011;9676;50.916;13.352;2023-08-12T06:06:31;10.40;;;9.40;;
19087;SDS011;9676;50.916;13.352;2023-08-12T06:09:20;10.50;;;9.50;;
19087;SDS011;9676;50.916;13.352;2023-08-12T06:12:11;11.10;;;9.80;;
19087;SDS011;9676;50.916;13.352;2023-08-12T06:15:03;11.00;;;9.90;;
19087;SDS011;9676;50.916;13.352;2023-08-12T06:17:53;10.50;;;9.50;;
19087;SDS011;9676;50.916;13.352;2023-08-12T06:20:42;10.20;;;9.30;;
19087;SDS011;9676;50.916;13.352;2023-08-12T06:23:32;10.40;;;9.40;;
19087;SDS011;9676;50.916;13.352;2023-08-12T06:26:21;10.37;;;9.27;;
19087;SDS011;9676;50.916;13.352;2023-08-12T06:29:10;9.63;;;8.80;;
19087;SDS011;9676;50.916;13.352;2023-08-12T06:32:01;11.18;;;9.10;;
19087;SDS011;9676;50.916;13.352;2023-08-12T06:34:50;9.90;;;9.00;;
19087;SDS011;9676;50.916;13.352;2023-08-12T06:37:41;10.55;;;9.55;;
19087;SDS011;9676;50.916;13.352;2023-08-12T06:40:30;10.20;;;9.25;;
19087;SDS011;9676;50.916;13.352;2023-08-12T06:43:20;10.07;;;9.07;;
19087;SDS011;9676;50.916;13.352;2023-08-12T06:46:09;10.27;;;8.82;;
19087;SDS011;9676;50.916;13.352;2023-08-12T06:49:00;9.98;;;9.07;;
19087;SDS011;9676;50.916;13.352;2023-08-12T06:51:49;9.70;;;8.85;;
19087;SDS011;9676;50.916;13.352;2023-08-12T06:54:39;9.27;;;8.40;;
19087;SDS011;9676;50.916;13.352;2023-08-12T06:57:28;9.80;;;8.32;;
19087;SDS011;9676;50.916;13.352;2023-08-12T07:00:17;9.30;;;8.48;;
19087;SDS011;9676;50.916;13.352;2023-08-12T07:03:07;9.43;;;8.50;;
19087;SDS011;9676;50.916;13.352;2023-08-12T07:05:58;9.10;;;8.40;;
19087;SDS011;9676;50.916;13.352;2023-08-12T07:08:47;9.18;;;8.38;;
19087;SDS011;9676;50.916;13.352;2023-08-12T07:11:36;8.18;;;7.68;;
19087;SDS011;9676;50.916;13.352;2023-08-12T07:14:27;8.90;;;8.27;;
19087;SDS011;9676;50.916;13.352;2023-08-12T07:17:17;9.07;;;8.38;;
19087;SDS011;9676;50.916;13.352;2023-08-12T07:20:07;8.57;;;7.90;;
19087;SDS011;9676;50.916;13.352;2023-08-12T07:22:58;9.35;;;8.55;;
19087;SDS011;9676;50.916;13.352;2023-08-12T07:25:47;8.88;;;8.18;;
19087;SDS011;9676;50.916;13.352;2023-08-12T07:28:37;8.60;;;8.00;;
19087;SDS011;9676;50.916;13.352;2023-08-12T07:31:26;8.95;;;8.25;;
19087;SDS011;9676;50.916;13.352;2023-08-12T07:34:16;8.63;;;7.90;;
19087;SDS011;9676;50.916;13.352;2023-08-12T07:37:05;8.90;;;8.10;;
19087;SDS011;9676;50.916;13.352;2023-08-12T07:39:56;8.70;;;8.00;;
19087;SDS011;9676;50.916;13.352;2023-08-12T07:42:45;8.77;;;8.07;;
19087;SDS011;9676;50.916;13.352;2023-08-12T07:45:35;8.80;;;8.00;;
19087;SDS011;9676;50.916;13.352;2023-08-12T07:48:24;10.77;;;8.25;;
19087;SDS011;9676;50.916;13.352;2023-08-12T07:51:14;8.80;;;8.10;;
19087;SDS011;9676;50.916;13.352;2023-08-12T07:54:03;8.70;;;8.00;;
19087;SDS011;9676;50.916;13.352;2023-08-12T07:56:55;8.90;;;8.20;;
19087;SDS011;9676;50.916;13.352;2023-08-12T07:59:44;8.80;;;8.10;;
19087;SDS011;9676;50.916;13.352;2023-08-12T08:02:33;8.30;;;7.65;;
19087;SDS011;9676;50.916;13.352;2023-08-12T08:05:23;8.30;;;7.80;;
19087;SDS011;9676;50.916;13.352;2023-08-12T08:08:13;8.40;;;7.80;;
19087;SDS011;9676;50.916;13.352;2023-08-12T08:11:02;8.70;;;8.10;;
19087;SDS011;9676;50.916;13.352;2023-08-12T08:13:53;8.75;;;8.05;;
19087;SDS011;9676;50.916;13.352;2023-08-12T08:16:43;8.88;;;8.27;;
19087;SDS011;9676;50.916;13.352;2023-08-12T08:19:32;7.97;;;7.47;;
19087;SDS011;9676;50.916;13.352;2023-08-12T08:22:22;8.38;;;7.78;;
19087;SDS011;9676;50.916;13.352;2023-08-12T08:25:11;8.40;;;7.80;;
19087;SDS011;9676;50.916;13.352;2023-08-12T08:28:01;8.35;;;7.65;;
19087;SDS011;9676;50.916;13.352;2023-08-12T08:30:52;8.35;;;7.70;;
19087;SDS011;9676;50.916;13.352;2023-08-12T08:33:42;8.50;;;7.80;;
19087;SDS011;9676;50.916;13.352;2023-08-12T08:36:31;8.75;;;7.93;;
19087;SDS011;9676;50.916;13.352;2023-08-12T08:39:21;8.35;;;7.65;;
19087;SDS011;9676;50.916;13.352;2023-08-12T08:42:10;8.32;;;7.72;;
19087;SDS011;9676;50.916;13.352;2023-08-12T08:45:01;8.70;;;8.00;;
19087;SDS011;9676;50.916;13.352;2023-08-12T08:48:02;8.25;;;7.65;;
19087;SDS011;9676;50.916;13.352;2023-08-12T08:50:54;8.40;;;7.80;;
19087;SDS011;9676;50.916;13.352;2023-08-12T08:53:44;8.35;;;7.75;;
19087;SDS011;9676;50.916;13.352;2023-08-12T08:56:34;7.93;;;7.43;;
19087;SDS011;9676;50.916;13.352;2023-08-12T08:59:32;7.82;;;7.32;;
19087;SDS011;9676;50.916;13.352;2023-08-12T09:02:22;8.27;;;7.68;;
19087;SDS011;9676;50.916;13.352;2023-08-12T09:05:14;8.18;;;7.68;;
19087;SDS011;9676;50.916;13.352;2023-08-12T09:08:05;7.95;;;7.45;;
19087;SDS011;9676;50.916;13.352;2023-08-12T09:10:58;7.90;;;7.40;;
19087;SDS011;9676;50.916;13.352;2023-08-12T09:13:50;8.27;;;7.57;;
19087;SDS011;9676;50.916;13.352;2023-08-12T09:16:41;7.72;;;7.30;;
19087;SDS011;9676;50.916;13.352;2023-08-12T09:19:30;8.10;;;7.50;;
19087;SDS011;9676;50.916;13.352;2023-08-12T09:22:21;8.38;;;7.78;;
19087;SDS011;9676;50.916;13.352;2023-08-12T09:25:13;8.45;;;7.88;;
19087;SDS011;9676;50.916;13.352;2023-08-12T09:28:03;8.73;;;8.10;;
19087;SDS011;9676;50.916;13.352;2023-08-12T09:30:53;8.60;;;8.00;;
19087;SDS011;9676;50.916;13.352;2023-08-12T09:33:42;9.13;;;8.35;;
19087;SDS011;9676;50.916;13.352;2023-08-12T09:36:32;9.30;;;8.50;;
19087;SDS011;9676;50.916;13.352;2023-08-12T09:39:23;9.00;;;8.30;;
19087;SDS011;9676;50.916;13.352;2023-08-12T09:42:13;9.25;;;8.50;;
19087;SDS011;9676;50.916;13.352;2023-08-12T09:45:04;9.45;;;8.63;;
19087;SDS011;9676;50.916;13.352;2023-08-12T09:47:55;9.15;;;8.35;;
19087;SDS011;9676;50.916;13.352;2023-08-12T09:50:45;9.20;;;8.40;;
19087;SDS011;9676;50.916;13.352;2023-08-12T09:53:34;9.83;;;8.83;;
19087;SDS011;9676;50.916;13.352;2023-08-12T09:56:26;9.37;;;8.43;;
19087;SDS011;9676;50.916;13.352;2023-08-12T09:59:22;9.47;;;8.57;;
19087;SDS011;9676;50.916;13.352;2023-08-12T10:02:14;9.30;;;8.50;;
19087;SDS011;9676;50.916;13.352;2023-08-12T10:05:06;9.17;;;8.37;;
19087;SDS011;9676;50.916;13.352;2023-08-12T10:08:00;9.20;;;8.40;;
19087;SDS011;9676;50.916;13.352;2023-08-12T10:10:52;9.70;;;8.80;;
19087;SDS011;9676;50.916;13.352;2023-08-12T10:14:00;9.73;;;8.83;;
19087;SDS011;9676;50.916;13.352;2023-08-12T10:16:52;9.50;;;8.70;;
19087;SDS011;9676;50.916;13.352;2023-08-12T10:19:53;9.90;;;9.00;;
19087;SDS011;9676;50.916;13.352;2023-08-12T10:22:45;10.00;;;9.00;;
19087;SDS011;9676;50.916;13.352;2023-08-12T10:25:36;9.83;;;8.93;;
19087;SDS011;9676;50.916;13.352;2023-08-12T10:28:30;9.60;;;8.70;;
19087;SDS011;9676;50.916;13.352;2023-08-12T10:31:25;9.80;;;8.80;;
19087;SDS011;9676;50.916;13.352;2023-08-12T10:34:20;9.40;;;8.60;;
19087;SDS011;9676;50.916;13.352;2023-08-12T10:37:10;9.53;;;8.63;;
19087;SDS011;9676;50.916;13.352;2023-08-12T10:40:02;9.60;;;8.80;;
19087;SDS011;9676;50.916;13.352;2023-08-12T10:42:54;9.40;;;8.60;;
19087;SDS011;9676;50.916;13.352;2023-08-12T10:45:46;9.87;;;8.87;;
19087;SDS011;9676;50.916;13.352;2023-08-12T10:48:43;9.27;;;8.47;;
19087;SDS011;9676;50.916;13.352;2023-08-12T10:51:46;9.73;;;8.83;;
19087;SDS011;9676;50.916;13.352;2023-08-12T10:54:37;9.60;;;8.60;;
19087;SDS011;9676;50.916;13.352;2023-08-12T10:57:34;9.63;;;8.73;;
19087;SDS011;9676;50.916;13.352;2023-08-12T11:00:26;9.70;;;8.90;;
19087;SDS011;9676;50.916;13.352;2023-08-12T11:03:16;11.70;;;9.00;;
19087;SDS011;9676;50.916;13.352;2023-08-12T11:06:10;9.40;;;8.60;;
19087;SDS011;9676;50.916;13.352;2023-08-12T11:08:59;9.70;;;8.80;;
19087;SDS011;9676;50.916;13.352;2023-08-12T11:11:56;9.50;;;8.70;;
19087;SDS011;9676;50.916;13.352;2023-08-12T11:14:47;9.70;;;8.80;;
19087;SDS011;9676;50.916;13.352;2023-08-12T11:17:38;9.70;;;8.70;;
19087;SDS011;9676;50.916;13.352;2023-08-12T11:20:29;9.70;;;8.80;;
19087;SDS011;9676;50.916;13.352;2023-08-12T11:23:20;9.50;;;8.60;;
19087;SDS011;9676;50.916;13.352;2023-08-12T11:26:10;9.50;;;8.60;;
19087;SDS011;9676;50.916;13.352;2023-08-12T11:29:00;9.50;;;8.60;;
19087;SDS011;9676;50.916;13.352;2023-08-12T11:31:49;9.90;;;8.90;;
19087;SDS011;9676;50.916;13.352;2023-08-12T11:34:39;9.67;;;8.87;;
19087;SDS011;9676;50.916;13.352;2023-08-12T11:37:28;9.67;;;8.77;;
19087;SDS011;9676;50.916;13.352;2023-08-12T11:40:19;9.20;;;8.40;;
19087;SDS011;9676;50.916;13.352;2023-08-12T11:43:09;9.40;;;8.60;;
19087;SDS011;9676;50.916;13.352;2023-08-12T11:45:59;9.60;;;8.70;;
19087;SDS011;9676;50.916;13.352;2023-08-12T11:48:48;9.80;;;8.80;;
19087;SDS011;9676;50.916;13.352;2023-08-12T11:51:38;9.83;;;8.93;;
19087;SDS011;9676;50.916;13.352;2023-08-12T11:54:28;13.50;;;8.90;;
19087;SDS011;9676;50.916;13.352;2023-08-12T11:57:21;9.63;;;8.73;;
19087;SDS011;9676;50.916;13.352;2023-08-12T12:00:12;9.87;;;8.97;;
19087;SDS011;9676;50.916;13.352;2023-08-12T12:03:03;9.43;;;8.63;;
19087;SDS011;9676;50.916;13.352;2023-08-12T12:05:55;9.70;;;8.80;;
19087;SDS011;9676;50.916;13.352;2023-08-12T12:08:44;9.33;;;8.53;;
19087;SDS011;9676;50.916;13.352;2023-08-12T12:11:34;9.83;;;8.83;;
19087;SDS011;9676;50.916;13.352;2023-08-12T12:14:26;9.63;;;8.80;;
19087;SDS011;9676;50.916;13.352;2023-08-12T12:17:17;9.70;;;8.80;;
19087;SDS011;9676;50.916;13.352;2023-08-12T12:20:10;9.40;;;8.60;;
19087;SDS011;9676;50.916;13.352;2023-08-12T12:23:04;9.73;;;8.73;;
19087;SDS011;9676;50.916;13.352;2023-08-12T12:25:58;9.60;;;8.63;;
19087;SDS011;9676;50.916;13.352;2023-08-12T12:28:49;9.30;;;8.50;;
19087;SDS011;9676;50.916;13.352;2023-08-12T12:31:40;9.43;;;8.53;;
19087;SDS011;9676;50.916;13.352;2023-08-12T12:34:30;9.03;;;8.30;;
19087;SDS011;9676;50.916;13.352;2023-08-12T12:37:20;9.50;;;8.50;;
19087;SDS011;9676;50.916;13.352;2023-08-12T12:40:10;9.17;;;8.40;;
19087;SDS011;9676;50.916;13.352;2023-08-12T12:43:00;9.43;;;8.63;;
19087;SDS011;9676;50.916;13.352;2023-08-12T12:45:50;9.70;;;8.80;;
19087;SDS011;9676;50.916;13.352;2023-08-12T12:48:41;9.90;;;9.00;;
19087;SDS011;9676;50.916;13.352;2023-08-12T12:51:30;9.83;;;8.83;;
19087;SDS011;9676;50.916;13.352;2023-08-12T12:54:20;9.93;;;8.63;;
19087;SDS011;9676;50.916;13.352;2023-08-12T12:57:09;11.83;;;9.27;;
19087;SDS011;9676;50.916;13.352;2023-08-12T12:59:59;9.33;;;8.53;;
19087;SDS011;9676;50.916;13.352;2023-08-12T13:02:48;9.43;;;8.53;;
19087;SDS011;9676;50.916;13.352;2023-08-12T13:05:39;9.30;;;8.50;;
19087;SDS011;9676;50.916;13.352;2023-08-12T13:08:29;13.50;;;10.00;;
19087;SDS011;9676;50.916;13.352;2023-08-12T13:11:19;11.90;;;9.33;;
19087;SDS011;9676;50.916;13.352;2023-08-12T13:14:12;10.40;;;9.43;;
19087;SDS011;9676;50.916;13.352;2023-08-12T13:17:04;11.00;;;9.87;;
19087;SDS011;9676;50.916;13.352;2023-08-12T13:19:53;10.10;;;9.20;;
19087;SDS011;9676;50.916;13.352;2023-08-12T13:22:44;9.70;;;8.87;;
19087;SDS011;9676;50.916;13.352;2023-08-12T13:25:33;10.00;;;9.10;;
19087;SDS011;9676;50.916;13.352;2023-08-12T13:28:23;10.77;;;8.80;;
19087;SDS011;9676;50.916;13.352;2023-08-12T13:31:13;9.97;;;9.07;;
19087;SDS011;9676;50.916;13.352;2023-08-12T13:34:02;9.87;;;8.97;;
19087;SDS011;9676;50.916;13.352;2023-08-12T13:36:52;9.90;;;9.00;;
19087;SDS011;9676;50.916;13.352;2023-08-12T13:39:43;9.93;;;8.93;;
19087;SDS011;9676;50.916;13.352;2023-08-12T13:42:32;10.73;;;9.30;;
19087;SDS011;9676;50.916;13.352;2023-08-12T13:45:21;10.00;;;9.10;;
19087;SDS011;9676;50.916;13.352;2023-08-12T13:48:12;10.10;;;9.13;;
19087;SDS011;9676;50.916;13.352;2023-08-12T13:51:01;12.70;;;9.33;;
19087;SDS011;9676;50.916;13.352;2023-08-12T13:53:51;9.73;;;8.83;;
19087;SDS011;9676;50.916;13.352;2023-08-12T13:56:42;9.97;;;9.00;;
19087;SDS011;9676;50.916;13.352;2023-08-12T13:59:31;9.80;;;8.90;;
19087;SDS011;9676;50.916;13.352;2023-08-12T14:02:20;9.80;;;8.90;;
19087;SDS011;9676;50.916;13.352;2023-08-12T14:05:11;10.13;;;9.20;;
19087;SDS011;9676;50.916;13.352;2023-08-12T14:08:00;14.30;;;11.87;;
19087;SDS011;9676;50.916;13.352;2023-08-12T14:10:50;15.20;;;12.23;;
19087;SDS011;9676;50.916;13.352;2023-08-12T14:13:41;11.80;;;10.60;;
19087;SDS011;9676;50.916;13.352;2023-08-12T14:16:30;10.70;;;9.70;;
19087;SDS011;9676;50.916;13.352;2023-08-12T14:19:20;10.20;;;9.27;;
19087;SDS011;9676;50.916;13.352;2023-08-12T14:22:10;10.47;;;9.47;;
19087;SDS011;9676;50.916;13.352;2023-08-12T14:24:59;10.50;;;9.50;;
19087;SDS011;9676;50.916;13.352;2023-08-12T14:27:52;10.00;;;9.00;;
19087;SDS011;9676;50.916;13.352;2023-08-12T14:30:43;10.63;;;9.63;;
19087;SDS011;9676;50.916;13.352;2023-08-12T14:33:32;10.20;;;9.20;;
19087;SDS011;9676;50.916;13.352;2023-08-12T14:36:21;10.33;;;9.33;;
19087;SDS011;9676;50.916;13.352;2023-08-12T14:39:11;9.53;;;8.73;;
19087;SDS011;9676;50.916;13.352;2023-08-12T14:42:01;9.77;;;8.87;;
19087;SDS011;9676;50.916;13.352;2023-08-12T14:44:51;9.53;;;8.70;;
19087;SDS011;9676;50.916;13.352;2023-08-12T14:47:42;9.90;;;9.00;;
19087;SDS011;9676;50.916;13.352;2023-08-12T14:50:31;10.53;;;9.50;;
19087;SDS011;9676;50.916;13.352;2023-08-12T14:53:21;12.00;;;9.10;;
19087;SDS011;9676;50.916;13.352;2023-08-12T14:56:11;10.03;;;9.13;;
19087;SDS011;9676;50.916;13.352;2023-08-12T14:59:00;13.10;;;9.17;;
19087;SDS011;9676;50.916;13.352;2023-08-12T15:01:50;10.30;;;9.40;;
19087;SDS011;9676;50.916;13.352;2023-08-12T15:04:41;10.40;;;9.40;;
19087;SDS011;9676;50.916;13.352;2023-08-12T15:07:30;10.40;;;9.20;;
19087;SDS011;9676;50.916;13.352;2023-08-12T15:10:19;10.87;;;9.60;;
19087;SDS011;9676;50.916;13.352;2023-08-12T15:13:09;10.23;;;9.33;;
19087;SDS011;9676;50.916;13.352;2023-08-12T15:15:58;13.07;;;9.30;;
19087;SDS011;9676;50.916;13.352;2023-08-12T15:18:48;10.47;;;9.47;;
19087;SDS011;9676;50.916;13.352;2023-08-12T15:21:38;10.20;;;9.20;;
19087;SDS011;9676;50.916;13.352;2023-08-12T15:24:28;10.00;;;9.10;;
19087;SDS011;9676;50.916;13.352;2023-08-12T15:27:17;10.60;;;9.60;;
19087;SDS011;9676;50.916;13.352;2023-08-12T15:30:07;11.50;;;9.40;;
19087;SDS011;9676;50.916;13.352;2023-08-12T15:32:58;10.50;;;9.40;;
19087;SDS011;9676;50.916;13.352;2023-08-12T15:35:47;10.10;;;9.20;;
19087;SDS011;9676;50.916;13.352;2023-08-12T15:38:38;10.50;;;9.50;;
19087;SDS011;9676;50.916;13.352;2023-08-12T15:41:29;10.27;;;9.27;;
19087;SDS011;9676;50.916;13.352;2023-08-12T15:44:18;10.10;;;9.20;;
19087;SDS011;9676;50.916;13.352;2023-08-12T15:47:08;10.33;;;9.30;;
19087;SDS011;9676;50.916;13.352;2023-08-12T15:49:58;10.20;;;9.30;;
19087;SDS011;9676;50.916;13.352;2023-08-12T15:52:48;10.90;;;9.20;;
19087;SDS011;9676;50.916;13.352;2023-08-12T15:55:38;10.50;;;9.50;;
19087;SDS011;9676;50.916;13.352;2023-08-12T15:58:29;10.60;;;9.60;;
19087;SDS011;9676;50.916;13.352;2023-08-12T16:01:19;11.07;;;9.40;;
19087;SDS011;9676;50.916;13.352;2023-08-12T16:04:08;10.60;;;9.50;;
19087;SDS011;9676;50.916;13.352;2023-08-12T16:06:57;10.60;;;9.60;;
19087;SDS011;9676;50.916;13.352;2023-08-12T16:09:47;10.70;;;9.70;;
19087;SDS011;9676;50.916;13.352;2023-08-12T16:12:38;10.30;;;9.40;;
19087;SDS011;9676;50.916;13.352;2023-08-12T16:15:27;12.07;;;9.87;;
19087;SDS011;9676;50.916;13.352;2023-08-12T16:18:17;10.50;;;9.50;;
19087;SDS011;9676;50.916;13.352;2023-08-12T16:21:06;10.47;;;9.47;;
19087;SDS011;9676;50.916;13.352;2023-08-12T16:23:55;14.43;;;9.60;;
19087;SDS011;9676;50.916;13.352;2023-08-12T16:26:45;9.87;;;8.97;;
19087;SDS011;9676;50.916;13.352;2023-08-12T16:29:35;10.53;;;9.50;;
19087;SDS011;9676;50.916;13.352;2023-08-12T16:32:25;10.70;;;9.70;;
19087;SDS011;9676;50.916;13.352;2023-08-12T16:35:15;15.03;;;9.43;;
19087;SDS011;9676;50.916;13.352;2023-08-12T16:38:04;11.03;;;9.93;;
19087;SDS011;9676;50.916;13.352;2023-08-12T16:40:53;10.13;;;9.13;;
19087;SDS011;9676;50.916;13.352;2023-08-12T16:43:43;10.27;;;9.27;;
19087;SDS011;9676;50.916;13.352;2023-08-12T16:46:34;10.70;;;9.60;;
19087;SDS011;9676;50.916;13.352;2023-08-12T16:49:23;12.07;;;9.93;;
19087;SDS011;9676;50.916;13.352;2023-08-12T16:52:12;10.93;;;9.73;;
19087;SDS011;9676;50.916;13.352;2023-08-12T16:55:02;10.30;;;9.30;;